Mandaree, North Dakota
Current Conditions -  °F | °C
As of 9:35 PM on Monday 22 Dec 2014 (Local Time) from KS25 Reporting Station
Haze Haze  
Wind Chill: 13°   Ceiling: 500
Heat Index: 25°   Visibility: 6mi
Dew Point: 25°   Wind: 14mph
Humidity: 100%   Direction: 340°NNW
Pressure: 29.84"   Gusts: 18mph
Location:  47.72°N, 102.69°W
Report Text: KS25 230335Z AUTO 34012G16KT 6SM BR OVC005 M04/M04 A2984 RMK AO2
Loading
Personal Weather Stations






























Interactive Weather Map New forecast layout! Learn more

10-Day Weather Forecast

Advertisements
Track Severe Weather on mobile